createdAt,value
2022-08-26T00:00:48.678Z,101790
2022-08-26T00:01:47.883Z,101787
2022-08-26T00:02:47.476Z,101785
2022-08-26T00:03:48.979Z,101785
2022-08-26T00:04:47.598Z,101789
2022-08-26T00:05:47.900Z,101782
2022-08-26T00:06:47.596Z,101786
2022-08-26T00:07:47.654Z,101787
2022-08-26T00:08:47.748Z,101786
2022-08-26T00:09:47.653Z,101785
2022-08-26T00:11:47.544Z,101782
2022-08-26T00:12:47.555Z,101777
2022-08-26T00:13:48.605Z,101780
2022-08-26T00:14:47.521Z,101778
2022-08-26T00:15:47.552Z,101781
2022-08-26T00:16:48.934Z,101780
2022-08-26T00:17:48.342Z,101780
2022-08-26T00:19:47.517Z,101779
2022-08-26T00:20:47.692Z,101780
2022-08-26T00:21:48.847Z,101776
2022-08-26T00:22:47.766Z,101780
2022-08-26T00:23:48.037Z,101771
2022-08-26T00:24:47.871Z,101773
2022-08-26T00:25:47.680Z,101768
2022-08-26T00:26:48.738Z,101770
2022-08-26T00:27:47.941Z,101766
2022-08-26T00:28:47.475Z,101766
2022-08-26T00:29:47.545Z,101764
2022-08-26T00:30:49.375Z,101764
2022-08-26T00:31:47.656Z,101760
2022-08-26T00:32:47.794Z,101762
2022-08-26T00:33:47.527Z,101757
2022-08-26T00:34:47.484Z,101758
2022-08-26T00:35:48.573Z,101755
2022-08-26T00:36:51.739Z,101757
2022-08-26T00:37:47.469Z,101754
2022-08-26T00:38:48.205Z,101749
2022-08-26T00:40:50.511Z,101748
2022-08-26T00:41:47.611Z,101745
2022-08-26T00:42:47.792Z,101745
2022-08-26T00:43:48.069Z,101746
2022-08-26T00:44:47.673Z,101745
2022-08-26T00:46:53.632Z,101743
2022-08-26T00:47:53.463Z,101743
2022-08-26T00:48:51.139Z,101741
2022-08-26T00:49:48.517Z,101740
2022-08-26T00:50:55.941Z,101739
2022-08-26T00:51:51.687Z,101737
2022-08-26T00:52:48.434Z,101736
2022-08-26T00:53:53.593Z,101733
2022-08-26T00:54:54.222Z,101730
2022-08-26T00:55:50.811Z,101729
2022-08-26T00:56:53.424Z,101727
2022-08-26T00:57:51.545Z,101726
2022-08-26T00:58:48.361Z,101723
2022-08-26T00:59:51.678Z,101722
2022-08-26T01:00:48.222Z,101723
2022-08-26T01:01:47.670Z,101724
2022-08-26T01:02:49.097Z,101720
2022-08-26T01:03:47.963Z,101723
2022-08-26T01:04:54.396Z,101723
2022-08-26T01:05:47.567Z,101720
2022-08-26T01:06:48.857Z,101724
2022-08-26T01:07:47.963Z,101724
2022-08-26T01:08:47.459Z,101722
2022-08-26T01:09:48.049Z,101719
2022-08-26T01:10:47.544Z,101717
2022-08-26T01:11:49.715Z,101716
2022-08-26T01:12:52.734Z,101715
2022-08-26T01:13:49.261Z,101717
2022-08-26T01:14:48.560Z,101715
2022-08-26T01:15:51.817Z,101714
2022-08-26T01:16:48.817Z,101714
2022-08-26T01:17:47.859Z,101710
2022-08-26T01:18:48.659Z,101712
2022-08-26T01:19:53.564Z,101710
2022-08-26T01:21:01.625Z,101712
2022-08-26T01:21:55.470Z,101707
2022-08-26T01:22:57.677Z,101707
2022-08-26T01:23:50.772Z,101708
2022-08-26T01:24:48.824Z,101704
2022-08-26T01:26:48.324Z,101699
2022-08-26T01:27:49.054Z,101700
2022-08-26T01:29:50.207Z,101696
2022-08-26T01:30:49.627Z,101692
2022-08-26T01:31:53.178Z,101688
2022-08-26T01:32:49.822Z,101693
2022-08-26T01:34:00.920Z,101695
2022-08-26T01:34:48.667Z,101695
2022-08-26T01:35:48.665Z,101695
2022-08-26T01:36:51.363Z,101699
2022-08-26T01:37:51.618Z,101695
2022-08-26T01:38:47.699Z,101696
2022-08-26T01:39:50.433Z,101695
2022-08-26T01:40:48.183Z,101697
2022-08-26T01:41:48.272Z,101695
2022-08-26T01:42:49.339Z,101697
2022-08-26T01:44:52.830Z,101692
2022-08-26T01:45:49.633Z,101693
2022-08-26T01:46:49.795Z,101691
2022-08-26T01:47:49.326Z,101691
2022-08-26T01:48:48.860Z,101691
2022-08-26T01:49:51.924Z,101688
2022-08-26T01:50:48.820Z,101692
2022-08-26T01:51:50.410Z,101696
2022-08-26T01:52:49.994Z,101689
2022-08-26T01:53:47.691Z,101691
2022-08-26T01:54:50.505Z,101689
2022-08-26T01:55:51.779Z,101689
2022-08-26T01:56:48.542Z,101689
2022-08-26T01:57:51.149Z,101687
2022-08-26T01:58:53.439Z,101686
2022-08-26T01:59:49.547Z,101685
2022-08-26T02:00:47.833Z,101686
2022-08-26T02:01:48.868Z,101683
2022-08-26T02:02:50.974Z,101683
2022-08-26T02:04:02.155Z,101680
2022-08-26T02:04:51.891Z,101683
2022-08-26T02:05:53.624Z,101680
2022-08-26T02:06:48.584Z,101679
2022-08-26T02:07:48.357Z,101676
2022-08-26T02:08:51.419Z,101680
2022-08-26T02:09:47.639Z,101680
2022-08-26T02:10:47.497Z,101679
2022-08-26T02:11:48.596Z,101676
2022-08-26T02:12:47.406Z,101673
2022-08-26T02:13:52.842Z,101674
2022-08-26T02:14:53.391Z,101677
2022-08-26T02:15:48.459Z,101677
2022-08-26T02:16:52.311Z,101674
2022-08-26T02:17:48.568Z,101672
2022-08-26T02:18:49.065Z,101673
2022-08-26T02:19:49.530Z,101670
2022-08-26T02:20:47.568Z,101671
2022-08-26T02:21:51.303Z,101669
2022-08-26T02:22:48.210Z,101673
2022-08-26T02:23:47.785Z,101667
2022-08-26T02:24:52.826Z,101671
2022-08-26T02:25:54.257Z,101669
2022-08-26T02:26:48.159Z,101669
2022-08-26T02:27:48.522Z,101669
2022-08-26T02:28:53.689Z,101672
2022-08-26T02:29:52.543Z,101669
2022-08-26T02:30:49.149Z,101669
2022-08-26T02:33:47.696Z,101676
2022-08-26T02:35:48.282Z,101676
2022-08-26T02:36:47.965Z,101675
2022-08-26T02:37:49.322Z,101677
2022-08-26T02:38:47.473Z,101676
2022-08-26T02:41:47.554Z,101679
2022-08-26T02:44:47.369Z,101680
2022-08-26T02:45:47.722Z,101680
2022-08-26T02:46:47.474Z,101679
2022-08-26T02:47:48.250Z,101680
2022-08-26T02:48:47.525Z,101679
2022-08-26T02:49:47.855Z,101677
2022-08-26T02:50:47.871Z,101680
2022-08-26T02:51:49.640Z,101679
2022-08-26T02:52:48.639Z,101679
2022-08-26T02:53:47.743Z,101683
2022-08-26T02:54:47.445Z,101685
2022-08-26T02:55:49.634Z,101684
2022-08-26T02:56:47.458Z,101681
2022-08-26T02:58:47.708Z,101683
2022-08-26T02:59:47.395Z,101683
2022-08-26T03:00:53.599Z,101683
2022-08-26T03:01:49.819Z,101680
2022-08-26T03:02:47.459Z,101680
2022-08-26T03:03:47.364Z,101683
2022-08-26T03:06:52.846Z,101686
2022-08-26T03:07:48.283Z,101681
2022-08-26T03:08:47.928Z,101683
2022-08-26T03:09:47.527Z,101684
2022-08-26T03:11:47.447Z,101686
2022-08-26T03:13:47.676Z,101682
2022-08-26T03:14:48.304Z,101682
2022-08-26T03:15:47.625Z,101684
2022-08-26T03:16:48.463Z,101682
2022-08-26T03:17:49.223Z,101686
2022-08-26T03:18:52.265Z,101685
2022-08-26T03:19:49.838Z,101682
2022-08-26T03:20:47.418Z,101683
2022-08-26T03:22:47.520Z,101680
2022-08-26T03:23:48.467Z,101681
2022-08-26T03:24:47.384Z,101678
2022-08-26T03:25:51.103Z,101678
2022-08-26T03:26:52.502Z,101677
2022-08-26T03:27:47.476Z,101676
2022-08-26T03:28:56.726Z,101679
2022-08-26T03:29:56.757Z,101675
2022-08-26T03:30:48.273Z,101674
2022-08-26T03:31:47.540Z,101679
2022-08-26T03:32:47.467Z,101681
2022-08-26T03:33:47.466Z,101676
2022-08-26T03:34:47.633Z,101672
2022-08-26T03:35:50.493Z,101673
2022-08-26T03:36:47.498Z,101675
2022-08-26T03:37:47.525Z,101675
2022-08-26T03:38:47.399Z,101671
2022-08-26T03:39:47.723Z,101668
2022-08-26T03:41:47.645Z,101669
2022-08-26T03:42:47.912Z,101667
2022-08-26T03:43:48.542Z,101668
2022-08-26T03:44:47.373Z,101667
2022-08-26T03:45:47.365Z,101668
2022-08-26T03:46:47.456Z,101668
2022-08-26T03:48:47.453Z,101670
2022-08-26T03:49:47.721Z,101668
2022-08-26T03:50:47.437Z,101671
2022-08-26T03:51:47.518Z,101670
2022-08-26T03:52:47.406Z,101667
2022-08-26T03:55:48.683Z,101666
2022-08-26T03:56:47.746Z,101668
2022-08-26T03:57:48.107Z,101668
2022-08-26T03:58:47.385Z,101667
2022-08-26T03:59:47.342Z,101667
2022-08-26T04:00:47.603Z,101667
2022-08-26T04:01:47.509Z,101668
2022-08-26T04:02:51.307Z,101671
2022-08-26T04:03:56.998Z,101673
2022-08-26T04:04:47.427Z,101670
2022-08-26T04:05:47.424Z,101673
2022-08-26T04:06:47.731Z,101674
2022-08-26T04:07:47.884Z,101673
2022-08-26T04:08:47.422Z,101671
2022-08-26T04:09:47.794Z,101677
2022-08-26T04:10:47.352Z,101675
2022-08-26T04:11:50.392Z,101676
2022-08-26T04:12:47.395Z,101676
2022-08-26T04:13:48.086Z,101677
2022-08-26T04:14:47.506Z,101676
2022-08-26T04:15:47.419Z,101671
2022-08-26T04:16:47.635Z,101672
2022-08-26T04:17:47.786Z,101673
2022-08-26T04:18:47.442Z,101675
2022-08-26T04:20:49.435Z,101674
2022-08-26T04:21:49.179Z,101674
2022-08-26T04:22:47.402Z,101674
2022-08-26T04:23:48.090Z,101672
2022-08-26T04:24:47.289Z,101672
2022-08-26T04:25:47.364Z,101671
2022-08-26T04:26:47.529Z,101670
2022-08-26T04:27:47.327Z,101674
2022-08-26T04:28:48.283Z,101676
2022-08-26T04:29:47.954Z,101671
2022-08-26T04:30:47.383Z,101675
2022-08-26T04:31:48.819Z,101675
2022-08-26T04:32:47.286Z,101675
2022-08-26T04:33:50.077Z,101675
2022-08-26T04:34:47.553Z,101671
2022-08-26T04:35:47.373Z,101672
2022-08-26T04:36:47.917Z,101668
2022-08-26T04:37:48.029Z,101669
2022-08-26T04:39:51.122Z,101671
2022-08-26T04:40:47.746Z,101669
2022-08-26T04:41:49.261Z,101667
2022-08-26T04:42:47.325Z,101670
2022-08-26T04:43:49.038Z,101673
2022-08-26T04:44:47.393Z,101671
2022-08-26T04:45:47.385Z,101671
2022-08-26T04:47:47.372Z,101673
2022-08-26T04:48:48.041Z,101677
2022-08-26T04:50:49.639Z,101674
2022-08-26T04:51:48.999Z,101678
2022-08-26T04:52:47.497Z,101679
2022-08-26T04:53:47.771Z,101678
2022-08-26T04:54:47.354Z,101680
2022-08-26T04:55:48.399Z,101675
2022-08-26T04:56:49.711Z,101681
2022-08-26T04:57:47.439Z,101679
2022-08-26T04:58:49.477Z,101683
2022-08-26T04:59:47.352Z,101686
2022-08-26T05:00:49.295Z,101683
2022-08-26T05:01:50.433Z,101683
2022-08-26T05:02:47.802Z,101685
2022-08-26T05:03:47.937Z,101685
2022-08-26T05:04:47.301Z,101686
2022-08-26T05:05:50.210Z,101683
2022-08-26T05:06:48.457Z,101683
2022-08-26T05:07:47.419Z,101680
2022-08-26T05:08:47.856Z,101684
2022-08-26T05:09:47.393Z,101684
2022-08-26T05:10:50.150Z,101682
2022-08-26T05:11:48.480Z,101685
2022-08-26T05:12:47.352Z,101684
2022-08-26T05:14:47.431Z,101685
2022-08-26T05:17:48.041Z,101681
2022-08-26T05:18:47.632Z,101686
2022-08-26T05:19:47.794Z,101685
2022-08-26T05:20:50.007Z,101685
2022-08-26T05:21:48.949Z,101688
2022-08-26T05:22:48.260Z,101687
2022-08-26T05:23:49.510Z,101689
2022-08-26T05:24:47.923Z,101689
2022-08-26T05:25:50.222Z,101691
2022-08-26T05:26:48.137Z,101692
2022-08-26T05:27:47.777Z,101693
2022-08-26T05:28:47.716Z,101692
2022-08-26T05:29:48.537Z,101687
2022-08-26T05:30:48.061Z,101691
2022-08-26T05:31:47.738Z,101688
2022-08-26T05:32:53.637Z,101688
2022-08-26T05:33:48.522Z,101688
2022-08-26T05:34:47.859Z,101688
2022-08-26T05:35:48.347Z,101688
2022-08-26T05:36:48.107Z,101690
2022-08-26T05:37:47.748Z,101689
2022-08-26T05:38:47.799Z,101690
2022-08-26T05:39:51.018Z,101690
2022-08-26T05:40:52.852Z,101690
2022-08-26T05:41:47.958Z,101687
2022-08-26T05:42:48.880Z,101692
2022-08-26T05:43:47.731Z,101693
2022-08-26T05:44:55.363Z,101694
2022-08-26T05:45:49.742Z,101695
2022-08-26T05:46:47.804Z,101699
2022-08-26T05:47:47.722Z,101698
2022-08-26T05:48:47.743Z,101699
2022-08-26T05:49:51.354Z,101698
2022-08-26T05:50:51.325Z,101698
2022-08-26T05:51:48.078Z,101699
2022-08-26T05:52:47.665Z,101702
2022-08-26T05:53:47.714Z,101703
2022-08-26T05:54:47.994Z,101705
2022-08-26T05:55:50.147Z,101704
2022-08-26T05:56:47.794Z,101704
2022-08-26T05:57:47.875Z,101709
2022-08-26T05:58:48.319Z,101708
2022-08-26T05:59:47.706Z,101710
2022-08-26T06:00:56.809Z,101706
2022-08-26T06:01:47.773Z,101710
2022-08-26T06:02:48.391Z,101711
2022-08-26T06:03:53.199Z,101711
2022-08-26T06:04:47.824Z,101712
2022-08-26T06:05:47.727Z,101714
2022-08-26T06:06:47.789Z,101713
2022-08-26T06:07:57.022Z,101720
2022-08-26T06:08:48.541Z,101719
2022-08-26T06:09:47.658Z,101720
2022-08-26T06:10:50.990Z,101722
2022-08-26T06:11:47.674Z,101720
2022-08-26T06:12:47.652Z,101722
2022-08-26T06:13:48.399Z,101723
2022-08-26T06:14:49.029Z,101720
2022-08-26T06:15:50.565Z,101720
2022-08-26T06:16:48.217Z,101722
2022-08-26T06:17:47.710Z,101719
2022-08-26T06:18:49.267Z,101725
2022-08-26T06:19:47.672Z,101724
2022-08-26T06:20:56.869Z,101727
2022-08-26T06:21:54.007Z,101729
2022-08-26T06:22:56.948Z,101727
2022-08-26T06:23:58.840Z,101726
2022-08-26T06:24:56.959Z,101730
2022-08-26T06:25:48.924Z,101728
2022-08-26T06:26:51.732Z,101729
2022-08-26T06:27:49.221Z,101728
2022-08-26T06:28:47.797Z,101727
2022-08-26T06:29:47.670Z,101731
2022-08-26T06:30:47.809Z,101728
2022-08-26T06:31:48.044Z,101729
2022-08-26T06:32:47.674Z,101729
2022-08-26T06:33:47.881Z,101732
2022-08-26T06:34:47.670Z,101734
2022-08-26T06:35:48.476Z,101736
2022-08-26T06:36:48.140Z,101733
2022-08-26T06:37:47.816Z,101739
2022-08-26T06:38:49.243Z,101740
2022-08-26T06:39:48.267Z,101740
2022-08-26T06:40:50.261Z,101747
2022-08-26T06:41:47.950Z,101750
2022-08-26T06:42:47.671Z,101749
2022-08-26T06:43:48.127Z,101749
2022-08-26T06:44:47.802Z,101752
2022-08-26T06:45:48.730Z,101754
2022-08-26T06:46:50.277Z,101757
2022-08-26T06:47:47.734Z,101759
2022-08-26T06:48:48.225Z,101764
2022-08-26T06:49:47.673Z,101763
2022-08-26T06:50:48.499Z,101762
2022-08-26T06:51:47.696Z,101767
2022-08-26T06:52:47.661Z,101766
2022-08-26T06:53:49.974Z,101766
2022-08-26T06:54:47.734Z,101770
2022-08-26T06:55:47.973Z,101771
2022-08-26T06:56:47.923Z,101771
2022-08-26T06:57:47.626Z,101774
2022-08-26T06:58:47.697Z,101773
2022-08-26T06:59:48.386Z,101774
2022-08-26T07:00:47.761Z,101777
2022-08-26T07:01:47.659Z,101776
2022-08-26T07:02:47.729Z,101775
2022-08-26T07:03:49.402Z,101776
2022-08-26T07:04:47.864Z,101777
2022-08-26T07:05:48.447Z,101776
2022-08-26T07:06:52.970Z,101774
2022-08-26T07:07:49.290Z,101777
2022-08-26T07:08:48.619Z,101783
2022-08-26T07:10:47.813Z,101783
2022-08-26T07:12:49.347Z,101791
2022-08-26T07:14:48.743Z,101796
2022-08-26T07:15:49.697Z,101799
2022-08-26T07:16:47.867Z,101799
2022-08-26T07:17:47.689Z,101802
2022-08-26T07:18:49.788Z,101803
2022-08-26T07:19:49.372Z,101802
2022-08-26T07:20:47.715Z,101812
2022-08-26T07:21:47.649Z,101812
2022-08-26T07:22:47.655Z,101813
2022-08-26T07:23:49.262Z,101815
2022-08-26T07:24:47.708Z,101810
2022-08-26T07:25:47.657Z,101810
2022-08-26T07:26:47.611Z,101811
2022-08-26T07:27:54.018Z,101815
2022-08-26T07:28:50.890Z,101814
2022-08-26T07:29:47.803Z,101813
2022-08-26T07:30:47.786Z,101817
2022-08-26T07:31:47.645Z,101815
2022-08-26T07:32:47.868Z,101818
2022-08-26T07:33:48.504Z,101819
2022-08-26T07:34:47.677Z,101819
2022-08-26T07:35:47.657Z,101820
2022-08-26T07:36:47.786Z,101821
2022-08-26T07:37:47.658Z,101820
2022-08-26T07:38:48.600Z,101821
2022-08-26T07:39:48.116Z,101822
2022-08-26T07:40:48.329Z,101819
2022-08-26T07:41:48.133Z,101819
2022-08-26T07:42:47.699Z,101820
2022-08-26T07:46:52.237Z,101822
2022-08-26T07:47:48.122Z,101819
2022-08-26T07:48:50.064Z,101821
2022-08-26T07:49:47.601Z,101824
2022-08-26T07:50:50.305Z,101824
2022-08-26T07:51:47.625Z,101827
2022-08-26T07:52:47.814Z,101824
2022-08-26T07:53:48.238Z,101824
2022-08-26T07:57:47.910Z,101826
2022-08-26T07:59:47.592Z,101826
2022-08-26T08:00:48.336Z,101828
2022-08-26T08:01:48.074Z,101828
2022-08-26T08:02:47.660Z,101827
2022-08-26T08:03:51.928Z,101831
2022-08-26T08:04:47.706Z,101829
2022-08-26T08:05:47.809Z,101829
2022-08-26T08:06:47.779Z,101834
2022-08-26T08:07:48.492Z,101831
2022-08-26T08:08:48.045Z,101828
2022-08-26T08:09:51.519Z,101827
2022-08-26T08:11:47.631Z,101827
2022-08-26T08:12:47.747Z,101824
2022-08-26T08:17:50.582Z,101828
2022-08-26T08:19:47.652Z,101830
2022-08-26T08:24:52.853Z,101836
2022-08-26T08:26:47.567Z,101843
2022-08-26T08:29:47.757Z,101846
2022-08-26T08:30:47.784Z,101838
2022-08-26T08:31:57.880Z,101846
2022-08-26T08:33:47.895Z,101846
2022-08-26T08:35:48.776Z,101848
2022-08-26T08:37:47.856Z,101848
2022-08-26T08:38:47.967Z,101850
2022-08-26T08:39:47.648Z,101849
2022-08-26T08:40:47.729Z,101850
2022-08-26T08:42:06.346Z,101851
2022-08-26T08:42:58.390Z,101852
2022-08-26T08:43:48.327Z,101853
2022-08-26T08:44:51.998Z,101848
2022-08-26T08:45:51.601Z,101850
2022-08-26T08:46:51.713Z,101851
2022-08-26T08:47:50.767Z,101850
2022-08-26T08:48:57.082Z,101850
2022-08-26T08:49:48.002Z,101853
2022-08-26T08:50:51.278Z,101848
2022-08-26T08:51:55.785Z,101849
2022-08-26T08:52:55.511Z,101852
2022-08-26T08:53:50.558Z,101850
2022-08-26T08:54:47.892Z,101850
2022-08-26T08:56:55.686Z,101850
2022-08-26T08:58:02.265Z,101847
2022-08-26T08:59:02.330Z,101851
2022-08-26T08:59:59.310Z,101854
2022-08-26T09:00:55.103Z,101854
2022-08-26T09:01:57.132Z,101856
2022-08-26T09:04:59.108Z,101857
2022-08-26T09:05:51.779Z,101852
2022-08-26T09:08:51.465Z,101856
2022-08-26T09:09:53.880Z,101859
2022-08-26T09:11:48.074Z,101856
2022-08-26T09:13:52.246Z,101860
2022-08-26T09:15:56.791Z,101862
2022-08-26T09:17:02.529Z,101863
2022-08-26T09:17:51.957Z,101866
2022-08-26T09:19:05.522Z,101863
2022-08-26T09:19:53.618Z,101865
2022-08-26T09:20:52.523Z,101865
2022-08-26T09:21:55.438Z,101864
2022-08-26T09:22:47.913Z,101867
2022-08-26T09:23:49.662Z,101867
2022-08-26T09:24:49.265Z,101866
2022-08-26T09:25:50.561Z,101869
2022-08-26T09:26:48.923Z,101867
2022-08-26T09:27:50.490Z,101870
2022-08-26T09:28:55.321Z,101870
2022-08-26T09:29:50.390Z,101871
2022-08-26T09:30:57.624Z,101873
2022-08-26T09:31:47.777Z,101870
2022-08-26T09:33:03.547Z,101872
2022-08-26T09:33:48.102Z,101874
2022-08-26T09:34:57.973Z,101872
2022-08-26T09:36:48.903Z,101873
2022-08-26T09:38:47.579Z,101875
2022-08-26T09:39:47.660Z,101872
2022-08-26T09:40:59.242Z,101875
2022-08-26T09:42:05.375Z,101874
2022-08-26T09:42:48.196Z,101872
2022-08-26T09:44:05.372Z,101875
2022-08-26T09:44:58.154Z,101877
2022-08-26T09:45:58.427Z,101878
2022-08-26T09:46:54.040Z,101882
2022-08-26T09:47:57.240Z,101881
2022-08-26T09:48:47.556Z,101882
2022-08-26T09:50:09.790Z,101886
2022-08-26T09:50:58.791Z,101879
2022-08-26T09:51:50.185Z,101879
2022-08-26T09:52:47.644Z,101883
2022-08-26T09:53:54.786Z,101878
2022-08-26T09:55:04.235Z,101882
2022-08-26T09:56:47.732Z,101880
2022-08-26T09:57:51.349Z,101879
2022-08-26T09:58:49.194Z,101884
2022-08-26T09:59:49.704Z,101882
2022-08-26T10:00:57.202Z,101882
2022-08-26T10:01:47.719Z,101883
2022-08-26T10:02:49.455Z,101883
2022-08-26T10:03:47.565Z,101882
2022-08-26T10:04:54.635Z,101876
2022-08-26T10:05:57.306Z,101883
2022-08-26T10:06:56.548Z,101883
2022-08-26T10:08:50.443Z,101886
2022-08-26T10:09:48.480Z,101888
2022-08-26T10:11:52.252Z,101891
2022-08-26T10:12:55.281Z,101892
2022-08-26T10:14:52.987Z,101891
2022-08-26T10:15:58.804Z,101890
2022-08-26T10:16:58.537Z,101889
2022-08-26T10:17:54.498Z,101889
2022-08-26T10:18:56.859Z,101892
2022-08-26T10:19:56.766Z,101888
2022-08-26T10:21:57.063Z,101889
2022-08-26T10:23:01.283Z,101891
2022-08-26T10:23:51.958Z,101889
2022-08-26T10:24:55.121Z,101889
2022-08-26T10:25:49.211Z,101886
2022-08-26T10:26:58.753Z,101889
2022-08-26T10:27:59.775Z,101891
2022-08-26T10:28:58.000Z,101892
2022-08-26T10:29:49.576Z,101892
2022-08-26T10:30:56.460Z,101893
2022-08-26T10:31:52.911Z,101894
2022-08-26T10:32:54.789Z,101896
2022-08-26T10:33:47.623Z,101901
2022-08-26T10:34:47.583Z,101900
2022-08-26T10:37:14.753Z,101901
2022-08-26T10:37:49.020Z,101902
2022-08-26T10:38:47.729Z,101903
2022-08-26T10:39:57.109Z,101902
2022-08-26T10:40:53.273Z,101903
2022-08-26T10:41:52.659Z,101903
2022-08-26T10:43:03.410Z,101901
2022-08-26T10:43:53.814Z,101904
2022-08-26T10:45:53.120Z,101903
2022-08-26T10:46:53.254Z,101903
2022-08-26T10:48:49.786Z,101905
2022-08-26T10:49:51.437Z,101905
2022-08-26T10:50:48.620Z,101909
2022-08-26T10:55:56.880Z,101909
2022-08-26T10:59:56.854Z,101903
2022-08-26T11:01:55.139Z,101905
2022-08-26T11:06:47.652Z,101915
2022-08-26T11:08:50.553Z,101913
2022-08-26T11:14:00.114Z,101914
2022-08-26T11:14:58.668Z,101917
2022-08-26T11:15:56.061Z,101918
2022-08-26T11:16:48.287Z,101916
2022-08-26T11:17:57.877Z,101916
2022-08-26T11:18:51.240Z,101919
2022-08-26T11:20:48.380Z,101914
2022-08-26T11:22:48.230Z,101913
2022-08-26T11:23:50.436Z,101916
2022-08-26T11:24:56.815Z,101915
2022-08-26T11:25:57.504Z,101914
2022-08-26T11:26:56.102Z,101913
2022-08-26T11:27:58.007Z,101909
2022-08-26T11:29:57.002Z,101911
2022-08-26T11:30:55.485Z,101911
2022-08-26T11:31:57.787Z,101913
2022-08-26T11:32:51.822Z,101910
2022-08-26T11:33:54.326Z,101913
2022-08-26T11:34:59.517Z,101915
2022-08-26T11:35:50.275Z,101911
2022-08-26T11:37:59.243Z,101915
2022-08-26T11:38:47.834Z,101914
2022-08-26T11:41:52.780Z,101915
2022-08-26T11:44:49.207Z,101917
2022-08-26T11:47:48.633Z,101916
2022-08-26T11:49:47.421Z,101918
2022-08-26T11:50:58.984Z,101920
2022-08-26T11:53:02.428Z,101921
2022-08-26T11:55:04.936Z,101920
2022-08-26T11:56:50.498Z,101922
2022-08-26T11:58:48.878Z,101924
2022-08-26T11:59:48.054Z,101927
2022-08-26T12:00:58.193Z,101926
2022-08-26T12:01:51.594Z,101928
2022-08-26T12:04:51.519Z,101934
2022-08-26T12:07:51.364Z,101930
2022-08-26T12:08:48.285Z,101934
2022-08-26T12:10:48.604Z,101933
2022-08-26T12:12:58.334Z,101937
2022-08-26T12:16:48.074Z,101939
2022-08-26T12:17:53.411Z,101937
2022-08-26T12:20:48.716Z,101937
2022-08-26T12:21:49.803Z,101938
2022-08-26T12:22:47.997Z,101937
2022-08-26T12:25:47.566Z,101938
2022-08-26T12:26:47.649Z,101940
2022-08-26T12:28:50.410Z,101941
2022-08-26T12:32:58.071Z,101941
2022-08-26T12:34:49.411Z,101942
2022-08-26T12:35:50.311Z,101945
2022-08-26T12:36:54.838Z,101945
2022-08-26T12:38:47.932Z,101946
2022-08-26T12:39:49.448Z,101945
2022-08-26T12:40:50.613Z,101945
2022-08-26T12:41:51.173Z,101950
2022-08-26T12:42:48.910Z,101945
2022-08-26T12:49:48.349Z,101936
2022-08-26T12:50:51.737Z,101937
2022-08-26T12:51:51.714Z,101940
2022-08-26T12:53:04.154Z,101936
2022-08-26T12:53:47.470Z,101937
2022-08-26T12:55:02.890Z,101937
2022-08-26T12:57:48.396Z,101937
2022-08-26T12:59:47.468Z,101942
2022-08-26T13:00:49.345Z,101938
2022-08-26T13:01:49.756Z,101939
2022-08-26T13:03:47.943Z,101932
2022-08-26T13:04:47.574Z,101935
2022-08-26T13:05:47.576Z,101930
2022-08-26T13:08:05.312Z,101936
2022-08-26T13:09:47.433Z,101937
2022-08-26T13:11:55.953Z,101938
2022-08-26T13:15:47.497Z,101941
2022-08-26T13:16:47.567Z,101941
2022-08-26T13:17:47.377Z,101943
2022-08-26T13:19:47.674Z,101942
2022-08-26T13:22:58.477Z,101941
2022-08-26T13:23:48.836Z,101946
2022-08-26T13:28:47.719Z,101949
2022-08-26T13:30:50.121Z,101950
2022-08-26T13:34:51.286Z,101947
2022-08-26T13:41:47.493Z,101955
2022-08-26T13:43:47.374Z,101950
2022-08-26T13:44:50.976Z,101948
2022-08-26T13:45:49.757Z,101949
2022-08-26T13:46:48.003Z,101952
2022-08-26T13:50:48.409Z,101957
2022-08-26T13:52:47.429Z,101952
2022-08-26T13:55:48.243Z,101960
2022-08-26T13:57:47.421Z,101961
2022-08-26T13:58:48.083Z,101963
2022-08-26T14:02:48.060Z,101961
2022-08-26T14:03:48.182Z,101962
2022-08-26T14:06:47.775Z,101958
2022-08-26T14:07:47.424Z,101957
2022-08-26T14:09:47.418Z,101954
2022-08-26T14:13:47.415Z,101952
2022-08-26T14:17:49.993Z,101945
2022-08-26T14:23:03.671Z,101941
2022-08-26T14:23:47.621Z,101939
2022-08-26T14:24:47.769Z,101936
2022-08-26T14:29:49.705Z,101933
2022-08-26T14:30:42.389Z,101937
2022-08-26T14:33:39.349Z,101935
2022-08-26T14:35:38.731Z,101931
2022-08-26T14:36:39.678Z,101936
2022-08-26T14:37:38.524Z,101934
2022-08-26T14:39:38.648Z,101937
2022-08-26T14:41:53.931Z,101938
2022-08-26T14:43:42.758Z,101936
2022-08-26T14:50:38.773Z,101937
2022-08-26T14:51:38.779Z,101934
2022-08-26T14:52:47.861Z,101934
2022-08-26T14:59:49.757Z,101925
2022-08-26T15:02:39.280Z,101921
2022-08-26T15:05:41.030Z,101924
2022-08-26T15:06:38.858Z,101922
2022-08-26T15:13:38.202Z,101919
2022-08-26T15:14:38.063Z,101918
2022-08-26T15:17:38.825Z,101916
2022-08-26T15:18:38.311Z,101914
2022-08-26T15:20:38.412Z,101916
2022-08-26T15:21:38.417Z,101919
2022-08-26T15:23:39.681Z,101914
2022-08-26T15:25:38.213Z,101916
2022-08-26T15:27:38.393Z,101914
2022-08-26T15:28:39.021Z,101919
2022-08-26T15:29:38.168Z,101917
2022-08-26T15:31:38.183Z,101917
2022-08-26T15:33:39.854Z,101915
2022-08-26T15:35:38.445Z,101916
2022-08-26T15:37:39.130Z,101915
2022-08-26T15:42:38.869Z,101919
2022-08-26T15:43:38.693Z,101918
2022-08-26T15:44:38.177Z,101917
2022-08-26T15:45:38.096Z,101916
2022-08-26T15:46:39.407Z,101917
2022-08-26T15:47:55.294Z,101913
2022-08-26T15:48:38.626Z,101914
2022-08-26T15:49:38.099Z,101919
2022-08-26T15:50:48.832Z,101916
2022-08-26T15:53:38.122Z,101919
2022-08-26T15:55:38.063Z,101922
2022-08-26T15:58:38.127Z,101927
2022-08-26T16:00:39.239Z,101923
2022-08-26T16:03:38.158Z,101924
2022-08-26T16:04:38.278Z,101923
2022-08-26T16:06:40.645Z,101925
2022-08-26T16:09:38.057Z,101927
2022-08-26T16:11:38.092Z,101923
2022-08-26T16:13:39.874Z,101923
2022-08-26T16:15:38.855Z,101921
2022-08-26T16:19:38.184Z,101923
2022-08-26T16:20:57.830Z,101923
2022-08-26T16:23:38.609Z,101920
2022-08-26T16:26:40.404Z,101919
2022-08-26T16:28:38.730Z,101926
2022-08-26T16:30:38.077Z,101926
2022-08-26T16:31:38.832Z,101928
2022-08-26T16:35:38.504Z,101931
2022-08-26T16:36:39.572Z,101933
2022-08-26T16:38:39.250Z,101930
2022-08-26T16:39:45.185Z,101927
2022-08-26T16:40:38.888Z,101929
2022-08-26T16:41:38.497Z,101931
2022-08-26T16:43:38.239Z,101933
2022-08-26T16:44:44.637Z,101930
2022-08-26T16:49:38.143Z,101935